Date,TemperatureHighF,TemperatureAvgF,TemperatureLowF,DewpointHighF,DewpointAvgF,DewpointLowF,HumidityHigh,HumidityAvg,HumidityLow,PressureMaxIn,PressureMinIn,WindSpeedMaxMPH,WindSpeedAvgMPH,GustSpeedMaxMPH,PrecipitationSumIn
2012-1-1,38.3,26.7,17.4,16.1,11.7,5.4,67,53,38,30.62,30.50,5,0,5,0.00
2012-1-2,46.2,27.9,18.7,25.8,16.2,10.9,76,62,35,30.56,30.18,8,1,8,0.00
2012-1-3,55.4,41.1,27.0,23.0,16.5,12.0,62,38,25,30.47,30.21,14,2,14,0.00
2012-1-4,61.7,40.9,25.7,25.1,16.7,10.0,62,39,24,30.47,30.24,15,3,15,0.00
2012-1-5,57.9,45.5,30.4,20.1,16.1,9.6,54,32,22,30.29,30.15,21,5,21,0.00
2012-1-6,39.4,29.5,20.3,18.1,11.7,6.8,66,49,31,30.32,30.21,10,2,10,0.00
2012-1-7,40.5,28.8,23.5,15.6,10.6,5.0,61,47,30,30.44,30.24,8,0,8,0.00
2012-1-8,36.9,30.7,22.6,17.4,12.9,9.4,68,48,41,30.47,30.38,8,2,8,0.00
2012-1-9,45.3,29.2,18.5,21.9,15.9,11.0,74,59,38,30.47,30.18,6,1,6,0.00
2012-1-10,47.3,36.7,25.3,28.4,16.9,5.9,70,46,29,30.44,30.06,14,3,14,0.00
2012-1-11,35.1,22.3,10.4,19.7,7.2,-2.9,70,53,32,30.56,30.44,6,1,6,0.00
2012-1-12,32.5,18.0,8.4,9.2,2.4,-4.8,65,51,36,30.50,30.32,6,1,6,0.00
2012-1-13,45.5,24.1,10.0,15.7,6.9,-0.4,67,49,29,30.35,30.18,8,1,8,0.00
2012-1-14,54.3,38.3,27.5,15.7,8.7,1.0,50,30,18,30.18,29.79,28,4,28,0.00
2012-1-15,40.1,26.5,12.0,16.0,6.3,0.1,64,43,28,30.00,29.85,13,2,13,0.00
2012-1-16,31.3,19.0,8.4,9.7,0.9,-2.9,64,47,28,30.12,29.97,15,3,15,0.00
2012-1-17,27.0,23.4,19.8,17.1,6.8,-3.5,71,49,34,30.12,29.82,17,8,17,0.00
2012-1-18,26.1,23.8,22.5,18.8,15.2,11.7,74,69,60,29.91,29.76,8,1,8,0.00
2012-1-19,39.4,33.7,23.9,32.8,26.2,15.7,78,74,69,29.79,29.65,10,3,10,0.59
2012-1-20,46.0,36.6,32.0,37.2,27.9,22.5,80,71,48,29.97,29.62,13,2,13,0.04
2012-1-21,45.9,39.0,30.7,38.4,22.3,12.7,75,52,34,29.88,29.47,13,3,13,0.16
2012-1-22,37.9,32.6,25.2,19.6,11.9,7.9,63,43,31,30.09,29.88,18,5,18,0.00
2012-1-23,45.9,32.7,19.8,21.5,12.7,3.8,53,44,28,30.21,29.91,14,4,14,0.00
2012-1-24,38.5,28.5,13.5,22.0,7.0,-1.1,61,41,29,30.29,30.09,17,5,17,0.00
2012-1-25,48.7,41.3,34.0,25.9,18.6,12.0,67,41,29,30.27,30.03,33,6,33,0.08
2012-1-26,49.6,37.6,30.2,30.5,17.4,6.0,69,45,27,30.32,30.00,23,5,23,0.08
2012-1-27,39.2,29.2,21.2,9.7,3.9,-1.3,43,34,24,30.53,30.32,8,2,8,0.00
2012-1-28,42.4,33.0,22.3,22.3,7.4,-0.7,50,34,21,30.44,30.35,16,3,16,0.00
2012-1-29,59.5,45.5,35.6,25.0,20.4,11.4,53,38,24,30.35,29.97,21,6,21,0.00
2012-1-30,52.3,40.5,34.7,29.0,20.0,12.6,70,45,28,30.15,29.88,13,4,13,0.04
2012-1-31,46.6,34.8,25.2,17.4,13.6,9.0,58,42,30,30.24,30.12,12,2,12,0.00
2012-2-1,39.6,32.2,22.5,20.4,15.6,11.1,65,51,39,30.29,30.09,11,1,11,0.00
2012-2-2,43.0,33.6,22.6,18.0,14.3,10.7,63,45,34,30.47,30.29,6,1,6,0.00
2012-2-3,46.2,29.3,19.9,22.8,12.6,6.5,70,52,29,30.53,30.44,5,0,5,0.00
2012-2-4,41.2,25.2,13.8,17.8,9.4,4.6,70,52,32,30.56,30.44,5,0,5,0.00
2012-2-5,38.5,21.8,12.2,16.6,8.3,4.0,71,57,36,30.50,30.38,6,1,6,0.00
2012-2-6,41.7,27.7,13.8,19.9,12.0,4.2,70,53,34,30.47,30.38,4,0,4,0.00
2012-2-7,45.9,28.6,16.0,19.5,10.4,5.5,68,48,28,30.41,30.27,5,0,5,0.00
2012-2-8,38.1,26.4,14.2,19.0,9.9,3.4,70,51,36,30.44,30.29,4,0,5,0.00
2012-2-9,57.2,36.2,25.3,24.5,15.6,9.0,61,44,25,30.47,30.38,6,1,6,0.00
2012-2-10,42.8,35.0,29.1,26.4,21.3,16.3,70,57,45,30.38,30.29,6,0,6,0.00
2012-2-11,42.8,34.0,30.4,25.1,19.0,15.6,70,54,40,30.29,30.21,6,0,6,0.00
2012-2-12,41.5,33.0,24.4,26.5,20.0,13.2,74,59,43,30.24,30.06,4,0,4,0.00
2012-2-13,39.0,30.8,21.9,27.5,19.3,13.5,76,63,45,30.09,30.06,5,0,5,0.00
2012-2-14,43.0,34.0,27.0,16.9,10.6,5.9,53,38,28,30.12,30.03,8,1,8,0.00
2012-2-15,40.6,30.6,22.5,14.3,10.9,7.4,56,44,30,30.44,30.12,8,1,8,0.00
2012-2-16,44.8,28.8,16.7,13.2,8.8,3.1,57,44,25,30.50,30.32,10,1,10,0.00
2012-2-17,55.8,34.6,24.6,24.8,15.8,8.2,67,48,25,30.44,30.21,6,0,6,0.00
2012-2-18,45.1,34.6,24.6,19.6,12.6,8.4,59,41,28,30.21,30.09,11,3,11,0.00
2012-2-19,42.8,32.8,26.4,13.2,9.2,4.2,45,37,28,30.18,30.12,11,4,11,0.00
2012-2-20,46.8,34.0,28.6,19.4,10.0,4.4,56,37,25,30.18,30.09,13,4,13,0.00
2012-2-21,49.6,40.6,33.4,31.4,22.8,17.4,67,50,34,30.18,30.06,13,4,13,0.00
2012-2-22,47.3,37.6,28.0,34.0,27.3,15.2,78,67,38,30.18,29.88,17,3,17,0.47
2012-2-23,45.1,32.1,25.0,24.0,12.8,6.0,76,46,29,30.38,30.18,8,1,8,0.08
2012-2-24,50.4,36.3,26.1,17.7,12.4,9.1,51,38,27,30.41,29.91,16,4,16,0.00
2012-2-25,43.7,35.4,28.6,25.0,15.3,9.1,72,45,30,30.18,29.73,14,5,14,0.04
2012-2-26,42.8,31.2,26.1,10.9,6.2,-0.8,47,35,23,30.27,30.18,13,4,13,0.00
2012-2-27,41.0,27.8,16.7,13.1,6.2,0.2,57,40,28,30.27,30.15,6,1,6,0.00
2012-2-28,47.3,25.9,10.8,15.0,5.4,-2.2,61,43,25,30.18,30.00,6,1,6,0.00
2012-2-29,44.6,31.6,23.2,17.4,9.0,1.9,57,39,23,30.00,29.85,14,3,14,0.00
2012-3-1,45.1,29.3,22.3,17.7,9.1,3.2,57,43,25,30.27,29.97,11,3,11,0.00
2012-3-2,41.5,32.6,23.2,11.6,7.8,5.6,53,35,26,30.41,30.27,13,2,13,0.00
2012-3-3,54.7,41.9,30.2,22.2,17.6,11.3,49,38,27,30.41,30.35,13,3,13,0.00
2012-3-4,63.0,46.1,32.4,23.0,18.9,15.0,55,36,18,30.44,30.27,19,3,19,0.00
2012-3-5,60.6,45.9,34.3,29.6,17.1,11.5,71,34,17,30.27,29.82,22,5,22,0.04
2012-3-6,42.1,31.2,22.8,28.4,5.9,0.4,72,35,21,30.29,29.82,13,2,13,0.00
2012-3-7,46.8,32.0,22.8,12.2,5.5,1.0,45,33,22,30.62,30.29,14,3,14,0.00
2012-3-8,59.4,34.4,19.0,22.5,12.5,5.0,56,42,22,30.68,30.53,8,2,8,0.00
2012-3-9,70.3,46.2,23.9,19.8,13.7,7.1,57,30,14,30.53,30.27,16,3,16,0.00
2012-3-10,67.6,44.4,29.1,23.5,14.1,9.0,49,31,15,30.27,30.00,17,3,17,0.00
2012-3-11,63.9,39.7,28.4,23.9,17.7,13.8,59,43,18,30.03,29.79,16,3,16,0.00
2012-3-12,52.2,38.7,24.8,22.8,16.9,8.9,72,42,28,30.12,29.88,13,3,13,0.00
2012-3-13,58.6,43.5,31.8,21.3,15.9,7.9,53,33,22,30.12,29.67,29,6,29,0.00
2012-3-14,49.3,35.8,28.6,30.4,19.3,9.2,69,51,37,30.21,30.09,11,1,11,0.00
2012-3-15,63.0,48.5,37.6,30.6,26.5,22.6,64,44,24,30.21,29.97,14,4,14,0.00
2012-3-16,55.2,42.1,32.9,37.7,29.9,19.1,80,64,30,30.00,29.91,14,3,14,0.20
2012-3-17,44.4,34.8,26.8,37.3,27.6,19.3,79,75,66,29.91,29.70,8,0,8,0.12
2012-3-18,42.8,36.0,32.0,29.6,21.9,16.3,79,58,38,29.85,29.70,8,1,8,0.00
2012-3-19,45.1,33.9,28.2,27.6,16.4,4.1,77,52,28,30.12,29.82,11,2,11,0.08
2012-3-20,42.1,34.2,26.6,27.9,15.4,3.7,65,46,34,30.12,30.03,20,7,20,0.00
2012-3-21,45.7,37.7,32.7,30.1,25.8,20.2,78,63,46,30.18,30.09,8,0,8,0.04
2012-3-22,61.7,43.9,29.3,35.4,21.9,14.8,78,45,25,30.18,30.00,15,3,15,0.00
2012-3-23,54.0,38.2,27.3,30.2,22.5,14.9,75,55,34,30.35,30.09,8,1,8,0.00
2012-3-24,55.9,39.3,28.0,34.0,23.3,19.2,77,57,27,30.38,30.21,8,1,8,0.00
2012-3-25,66.7,43.8,25.3,36.5,23.6,17.6,75,49,23,30.24,29.91,10,1,10,0.00
2012-3-26,58.3,40.8,28.4,41.6,23.3,15.5,74,52,28,30.15,29.88,9,1,9,0.00
2012-3-27,62.2,45.6,30.9,22.0,17.8,14.7,54,35,19,30.21,30.06,13,3,13,0.00
2012-3-28,60.8,43.1,28.9,32.4,22.8,16.7,67,45,26,30.24,30.00,14,3,14,0.00
2012-3-29,62.2,45.1,28.2,25.1,19.0,15.2,68,39,19,30.21,29.97,13,5,13,0.00
2012-3-30,60.3,49.0,39.9,34.9,29.7,24.7,77,49,31,30.06,29.88,17,7,17,0.20
2012-3-31,65.7,48.8,38.8,41.8,32.1,21.4,80,57,24,30.06,29.73,23,2,23,0.04
2012-4-1,50.9,40.2,27.3,30.7,19.3,9.5,71,45,26,30.35,29.79,14,3,23,0.00
2012-4-2,55.0,38.3,25.5,19.4,14.0,9.9,57,39,21,30.53,30.35,8,2,8,0.00
2012-4-3,66.6,43.6,21.9,21.3,15.1,9.9,65,36,15,30.44,30.06,13,2,13,0.00
2012-4-4,57.9,40.3,26.6,25.3,16.0,5.7,59,38,21,30.24,29.91,20,3,20,0.00
2012-4-5,53.1,35.6,16.9,20.8,9.7,4.6,61,37,18,30.27,30.15,12,2,12,0.00
2012-4-6,42.1,34.8,27.5,27.5,20.1,10.8,75,56,35,30.47,30.18,8,1,8,0.04
2012-4-7,53.8,37.4,23.7,18.9,13.7,9.5,69,41,20,30.53,30.47,11,2,11,0.00
2012-4-8,56.7,38.5,21.6,24.4,16.1,9.6,65,42,25,30.56,30.44,8,1,8,0.00
2012-4-9,65.8,45.7,27.3,30.0,21.5,15.8,67,41,23,30.44,30.27,8,1,8,0.00
2012-4-10,73.8,50.5,32.0,29.7,23.5,19.5,64,39,16,30.29,30.03,6,1,6,0.00
2012-4-11,79.2,57.2,35.6,33.5,24.5,16.9,63,33,12,30.09,29.76,17,3,17,0.00
2012-4-12,60.8,49.0,33.6,36.7,25.5,16.0,71,43,24,30.06,29.94,14,3,14,0.00
2012-4-13,61.5,42.8,24.6,28.7,17.6,11.9,68,40,19,30.12,30.00,11,2,12,0.00
2012-4-14,65.8,45.7,24.8,26.5,16.3,7.7,66,35,15,30.21,30.06,13,2,13,0.00
2012-4-15,57.2,43.9,31.1,26.6,19.8,11.2,56,39,25,30.35,30.21,14,3,14,0.00
2012-4-16,62.8,44.2,26.6,27.3,20.9,14.1,66,42,21,30.35,30.24,13,3,13,0.00
2012-4-17,62.6,48.5,38.7,32.7,22.1,15.8,65,38,19,30.41,30.21,13,3,13,0.00
2012-4-18,63.0,48.3,38.1,30.9,22.9,16.7,67,39,23,30.29,30.21,14,3,14,0.00
2012-4-19,63.5,48.2,35.8,42.4,24.3,13.5,79,45,18,30.41,30.29,9,1,9,0.00
2012-4-20,70.5,57.7,45.9,33.3,26.2,21.7,56,31,19,30.47,30.35,24,6,24,0.00
2012-4-21,77.5,57.2,37.9,36.7,25.9,14.8,65,33,14,30.53,21.47,9,2,9,0.00
2012-4-22,84.7,58.3,33.4,35.1,26.0,17.7,66,34,13,21.47,21.47,6,1,6,0.00
2012-4-23,88.9,65.1,43.7,36.9,29.9,24.4,53,30,13,29.97,21.47,10,2,10,0.00
2012-4-24,78.8,63.2,46.4,48.4,33.8,25.5,71,36,18,30.03,29.94,17,3,17,0.04
2012-4-25,79.5,59.5,43.3,51.8,35.5,26.0,78,47,18,30.06,29.82,8,1,8,0.04
2012-4-26,66.9,53.8,43.9,53.3,35.7,18.0,77,53,32,29.91,29.59,24,2,24,0.20
2012-4-27,55.4,45.2,38.3,21.8,16.4,10.4,50,32,24,30.24,29.88,12,4,12,0.00
2012-4-28,59.7,45.4,29.8,22.9,16.1,7.3,47,31,22,30.24,30.18,9,2,9,0.00
2012-4-29,63.5,49.7,39.4,27.9,22.4,18.9,49,35,24,30.18,30.03,9,1,9,0.00
2012-4-30,66.7,49.7,39.9,37.7,32.6,27.5,69,53,26,29.88,29.76,18,5,18,0.16
2012-5-1,57.0,44.0,32.2,34.2,22.6,13.4,77,47,25,29.94,29.85,15,2,15,0.00
2012-5-2,57.2,41.1,27.0,29.5,18.1,9.6,66,43,20,30.03,29.88,19,2,19,0.00
2012-5-3,58.1,40.0,24.8,35.5,25.6,13.8,73,57,37,30.03,29.85,6,0,6,0.04
2012-5-4,61.5,45.7,38.5,37.2,31.3,21.3,77,61,25,30.18,29.97,10,1,10,0.08
2012-5-5,56.7,42.9,31.5,31.6,19.1,8.3,74,40,25,30.41,30.18,13,3,13,0.00
2012-5-6,61.3,44.4,28.0,23.2,17.4,10.3,52,36,21,30.44,30.38,8,2,8,0.00
2012-5-7,71.4,48.3,26.2,30.1,20.8,15.1,70,38,17,30.44,30.24,8,1,8,0.00
2012-5-8,81.1,57.1,33.6,29.1,23.6,18.8,58,31,14,30.27,30.06,10,2,10,0.00
2012-5-9,81.9,59.1,38.8,33.4,26.3,18.6,58,31,14,30.09,29.91,11,3,11,0.00
2012-5-10,58.5,48.0,30.4,18.6,11.1,2.8,36,23,17,30.27,30.03,15,4,15,0.00
2012-5-11,65.5,44.0,21.6,19.3,12.4,5.6,55,31,15,30.32,30.21,7,1,7,0.00
2012-5-12,74.5,50.4,26.1,24.8,17.0,9.6,54,30,13,30.35,30.27,8,1,8,0.00
2012-5-13,83.8,57.6,31.5,29.6,20.5,11.9,54,27,12,30.35,30.18,8,2,8,0.00
2012-5-14,83.1,60.3,36.9,30.6,23.4,16.2,49,27,12,30.29,30.12,8,2,8,0.00
2012-5-15,89.4,64.5,41.2,33.6,27.5,20.6,50,28,13,30.18,29.97,6,1,6,0.00
2012-5-16,86.0,67.1,46.2,35.7,28.2,18.4,52,26,13,30.06,29.91,10,2,10,0.00
2012-5-17,70.2,60.1,48.9,30.9,24.5,19.3,48,27,18,29.97,29.88,14,2,14,0.00
2012-5-18,68.5,52.7,36.9,33.3,21.3,9.2,65,34,15,30.12,29.94,10,2,10,0.00
2012-5-19,70.7,51.4,29.8,26.1,19.2,11.6,55,31,15,30.18,30.09,6,2,6,0.00
2012-5-20,80.8,58.4,36.5,33.0,25.2,17.5,51,31,14,30.21,30.09,15,2,15,0.00
2012-5-21,79.2,60.6,46.0,46.0,34.8,29.1,73,40,21,30.15,29.91,9,1,9,0.00
2012-5-22,65.1,53.0,45.5,46.2,32.6,22.8,77,50,24,29.97,29.91,12,2,12,0.16
2012-5-23,61.2,49.3,37.9,32.5,24.7,17.0,73,41,25,29.97,29.91,9,2,9,0.00
2012-5-24,64.4,49.1,38.3,29.9,24.6,19.9,56,40,23,29.97,29.82,8,2,8,0.00
2012-5-25,48.4,45.8,43.3,24.6,21.2,17.9,43,37,32,29.97,29.91,11,4,11,0.00
2012-5-26,49.5,44.4,40.3,34.4,24.3,20.2,75,46,37,29.97,29.91,11,3,11,0.04
2012-5-27,52.5,44.1,38.1,42.2,31.3,26.3,79,63,40,30.09,29.94,7,1,7,0.28
2012-5-28,69.8,55.0,43.5,34.4,29.3,25.7,58,40,22,30.12,30.06,8,2,8,0.00
2012-5-29,68.4,53.4,37.4,43.2,30.8,21.3,72,45,24,30.12,30.06,9,1,9,0.00
2012-5-30,72.3,57.5,46.2,33.5,27.7,23.3,49,34,20,30.27,30.12,8,1,8,0.00
2012-5-31,72.3,57.4,40.1,43.8,32.8,26.1,67,42,25,30.27,30.12,15,2,15,0.00
2012-6-1,80.6,63.0,51.4,49.7,40.3,31.7,74,49,20,30.15,30.00,12,1,12,0.00
2012-6-2,72.9,55.4,43.3,52.0,38.2,29.1,74,54,31,30.06,29.85,13,1,13,0.00
2012-6-3,75.0,55.8,39.6,39.4,34.5,29.7,73,49,23,30.06,30.00,8,1,8,0.04
2012-6-4,74.8,58.5,43.0,55.3,41.4,33.0,74,55,29,30.09,29.65,9,1,9,0.20
2012-6-5,64.8,54.0,41.7,50.6,35.3,30.0,77,51,32,30.03,29.67,13,2,13,0.28
2012-6-6,64.4,50.2,37.8,35.9,25.4,18.7,77,41,23,30.18,30.00,15,4,15,0.00
2012-6-7,75.7,54.9,31.3,30.6,23.7,18.8,65,34,14,30.21,29.97,11,3,11,0.00
2012-6-8,67.1,55.1,41.7,40.8,30.1,23.8,73,41,23,30.00,29.91,11,2,11,0.00
2012-6-9,61.2,48.9,37.8,34.0,23.9,19.8,60,39,24,30.06,29.94,10,2,10,0.00
2012-6-10,64.2,50.0,42.4,35.3,28.3,23.9,56,44,25,30.29,30.03,10,2,10,0.00
2012-6-11,73.4,58.1,46.4,36.5,31.8,28.5,61,40,22,30.29,30.18,6,1,6,0.00
2012-6-12,79.5,58.6,39.2,46.5,34.8,28.5,74,46,20,30.21,30.03,18,2,18,0.28
2012-6-13,73.2,59.3,46.2,46.0,33.8,19.7,75,43,19,30.12,30.00,9,2,12,0.04
2012-6-14,77.9,59.6,37.4,32.8,26.4,18.5,64,33,15,30.15,30.00,8,2,8,0.00
2012-6-15,78.3,63.2,46.6,33.6,26.4,17.4,47,26,15,30.27,30.06,9,2,9,0.00
2012-6-16,86.0,62.6,37.0,31.6,24.3,17.4,52,27,11,30.27,30.03,10,1,10,0.00
2012-6-17,80.1,67.8,54.3,41.6,30.0,19.9,54,26,15,30.03,29.82,19,3,19,0.00
2012-6-18,69.6,56.8,43.7,34.6,25.7,19.3,61,31,20,30.03,29.82,17,3,17,0.00
2012-6-19,66.9,54.3,42.6,30.2,27.2,23.4,56,36,23,30.18,30.00,9,2,9,0.00
2012-6-20,73.8,56.7,35.1,36.0,27.9,22.7,69,37,21,30.29,30.15,7,1,7,0.00
2012-6-21,84.4,63.6,41.0,37.4,30.5,25.4,61,33,13,30.18,29.94,7,1,7,0.00
2012-6-22,87.8,67.4,47.8,42.4,35.6,30.0,56,34,15,29.94,29.73,7,1,7,0.00
2012-6-23,87.1,69.1,49.8,50.4,40.9,37.5,69,40,19,29.91,29.79,7,1,7,0.00
2012-6-24,88.7,71.9,52.3,56.5,43.3,35.6,71,40,19,30.03,29.91,8,1,8,0.00
2012-6-25,93.7,73.8,51.3,49.0,36.5,27.5,63,30,11,30.03,29.85,14,1,14,0.00
2012-6-26,72.7,60.6,43.5,40.3,29.3,21.3,51,32,22,30.15,29.76,22,3,22,0.00
2012-6-27,78.4,58.4,36.7,34.6,25.4,20.3,63,33,15,30.18,30.09,8,2,8,0.00
2012-6-28,87.6,64.3,40.3,35.1,29.3,23.6,58,31,13,30.18,30.00,13,2,13,0.00
2012-6-29,82.6,65.1,49.1,50.5,36.4,29.1,65,37,20,30.15,30.06,6,1,6,0.00
2012-6-30,90.1,70.2,48.6,47.5,37.5,32.6,67,35,15,30.15,29.94,8,1,8,0.00
2012-7-1,80.6,68.2,55.4,48.3,40.7,36.7,50,37,24,30.12,29.97,6,1,6,0.00
2012-7-2,90.3,68.5,46.8,44.4,36.0,27.8,69,36,12,30.15,29.91,6,1,6,0.00
2012-7-3,80.6,65.2,53.1,42.2,33.4,21.9,60,33,20,30.15,29.82,15,2,15,0.00
2012-7-4,80.6,61.0,37.6,36.3,26.9,20.6,59,30,14,30.18,30.00,8,1,8,0.00
2012-7-5,86.4,64.5,42.6,35.3,29.8,24.4,52,30,13,30.12,30.03,6,1,6,0.00
2012-7-6,89.4,70.5,48.2,40.4,34.4,29.4,50,29,15,30.24,30.12,9,1,9,0.00
2012-7-7,98.1,72.5,51.3,46.9,35.9,28.9,52,30,11,30.29,30.18,13,1,13,0.00
2012-7-8,98.8,74.5,52.0,43.2,36.3,28.1,59,30,10,30.29,30.21,5,1,5,0.00
2012-7-9,97.3,72.3,54.3,43.4,36.7,29.3,43,29,12,30.27,30.15,17,1,17,0.24
2012-7-10,92.5,75.2,59.2,51.9,39.1,32.0,64,29,13,30.24,30.09,10,1,10,0.20
2012-7-11,97.5,72.5,56.3,56.5,42.0,36.8,63,36,16,30.21,30.09,5,1,5,0.20
2012-7-12,95.9,72.4,52.3,42.0,36.5,29.4,48,30,11,30.15,30.03,9,1,9,0.00
2012-7-13,86.2,71.4,56.5,44.9,38.2,34.5,47,32,18,30.18,30.03,8,1,8,0.00
2012-7-14,85.6,71.6,61.3,54.1,47.3,41.7,68,45,24,30.18,30.00,22,2,22,0.04
2012-7-15,86.0,69.7,57.6,51.1,41.4,32.6,66,39,19,30.09,30.00,15,2,15,0.00
2012-7-16,86.2,65.6,50.4,49.9,42.2,34.1,70,46,20,30.09,30.00,11,2,11,0.00
2012-7-17,95.4,71.9,55.4,53.0,42.0,26.4,71,41,11,30.06,29.94,25,2,25,0.00
2012-7-18,94.5,72.7,52.5,47.2,40.8,35.7,69,37,14,30.12,30.00,7,1,7,0.00
2012-7-19,92.7,74.2,54.9,45.5,38.8,32.6,53,31,14,30.21,30.09,6,1,6,0.20
2012-7-20,94.8,74.0,57.6,44.0,38.2,33.4,45,29,14,30.24,30.06,8,1,8,0.00
2012-7-21,90.3,72.9,54.5,48.2,38.8,32.4,61,32,15,30.27,30.12,6,0,6,0.00
2012-7-22,100.4,73.6,50.2,44.4,35.8,24.7,58,30,10,30.21,29.97,10,1,10,0.00
2012-7-23,87.1,72.9,58.5,38.8,31.3,20.1,39,23,12,30.18,30.00,9,1,9,0.00
2012-7-24,88.5,65.6,41.7,35.8,27.2,18.5,51,26,12,30.21,30.06,6,1,6,0.00
2012-7-25,90.7,68.3,46.4,33.8,28.5,23.4,44,25,12,30.18,30.06,6,1,6,0.00
2012-7-26,88.0,68.7,49.3,39.4,34.2,30.4,50,30,15,30.18,30.03,8,1,8,0.00
2012-7-27,92.3,70.1,54.3,50.3,39.7,33.2,67,36,14,30.12,30.00,13,1,13,0.08
2012-7-28,95.7,72.6,51.8,55.2,41.1,28.2,74,40,12,30.18,30.06,10,1,10,0.04
2012-7-29,93.9,72.9,51.8,45.8,35.9,28.4,61,30,11,30.24,30.12,8,1,8,0.00
2012-7-30,99.1,72.3,50.9,50.0,34.4,26.0,56,29,10,30.18,30.00,15,1,15,0.00
2012-7-31,93.4,73.6,51.8,41.9,32.8,24.4,49,25,11,30.21,30.06,6,1,6,0.00
2012-8-1,91.9,71.7,49.5,38.0,29.7,20.6,44,23,12,30.24,30.09,6,1,6,0.00
2012-8-2,85.1,67.8,48.6,44.9,29.3,23.0,48,26,13,30.18,30.06,14,1,14,0.00
2012-8-3,79.3,65.3,52.5,44.2,32.8,23.2,57,32,18,30.24,30.12,7,1,7,0.00
2012-8-4,89.4,66.1,43.9,35.4,29.9,24.7,52,29,13,30.27,30.15,5,1,5,0.00
2012-8-5,96.8,71.6,48.0,38.6,31.9,27.3,48,26,11,30.21,30.09,5,1,5,0.00
2012-8-6,89.2,69.9,54.9,44.0,35.2,30.4,43,29,15,30.29,30.15,4,0,4,0.00
2012-8-7,95.9,73.2,52.9,41.8,36.1,30.5,54,29,11,30.29,30.15,5,0,5,0.00
2012-8-8,98.6,69.5,53.8,48.9,37.0,30.7,55,33,10,30.24,30.12,11,1,11,0.35
2012-8-9,93.4,72.9,54.0,46.9,39.4,32.9,63,34,14,30.29,30.12,4,0,4,0.35
2012-8-10,87.3,70.9,56.7,43.3,36.6,31.8,47,31,16,30.15,30.00,8,0,8,0.00
2012-8-11,92.1,71.9,51.4,41.5,33.8,27.0,54,29,12,30.21,30.09,6,1,6,0.00
2012-8-12,95.2,70.3,48.6,34.8,29.9,22.9,47,25,11,30.24,30.09,5,1,5,0.00
2012-8-13,94.3,70.4,47.7,36.1,28.7,22.5,42,23,11,30.18,30.06,5,1,5,0.00
2012-8-14,96.4,72.7,51.4,35.8,28.9,22.3,38,22,11,30.12,29.97,12,2,12,0.00
2012-8-15,75.2,64.6,54.3,39.4,32.2,27.7,52,31,22,30.24,30.03,7,1,7,0.00
2012-8-16,81.7,63.1,43.3,39.8,33.3,28.2,61,35,20,30.24,30.12,6,0,6,0.00
2012-8-17,90.5,67.7,46.2,40.0,33.1,28.2,60,32,12,30.24,30.15,5,1,5,0.00
2012-8-18,94.6,69.6,46.6,35.6,29.6,23.5,48,26,11,30.24,30.03,5,1,5,0.00
2012-8-19,91.6,71.5,54.3,38.4,31.1,25.6,39,24,12,30.15,30.03,5,0,5,0.00
2012-8-20,91.8,72.2,58.6,40.4,34.3,27.0,40,26,12,30.15,30.06,8,0,8,0.00
2012-8-21,87.1,66.6,51.8,46.0,37.6,32.8,67,37,18,30.12,29.97,8,1,8,0.00
2012-8-22,88.7,65.9,49.1,53.0,38.2,24.4,76,44,13,30.12,30.03,6,1,6,0.00
2012-8-23,86.5,63.3,43.0,34.7,27.7,22.4,48,28,13,30.09,29.94,8,1,8,0.00
2012-8-24,77.4,60.5,45.3,30.1,22.4,12.1,52,26,13,30.15,30.00,8,2,8,0.00
2012-8-25,81.1,56.4,34.7,28.3,21.2,15.4,50,28,14,30.18,30.00,5,1,5,0.00
2012-8-26,78.8,57.4,40.1,62.9,33.0,18.2,68,41,18,30.09,30.00,7,0,7,0.00
2012-8-27,94.6,70.9,55.4,43.0,38.3,31.5,51,33,14,30.15,30.06,19,1,19,0.00
2012-8-28,88.2,67.4,48.6,46.7,38.6,29.8,68,39,18,30.18,29.94,4,0,4,0.00
2012-8-29,78.3,63.7,49.8,36.4,30.6,25.9,47,31,18,30.18,30.00,6,1,6,0.00
2012-8-30,83.5,60.4,40.1,36.8,28.4,21.4,60,33,14,30.18,30.00,5,1,5,0.00
2012-8-31,83.7,64.4,41.7,30.9,25.7,20.7,47,26,14,30.09,29.91,23,2,23,0.00
2012-9-1,84.7,67.1,47.5,36.0,26.6,12.4,45,23,12,30.18,29.97,9,1,9,0.00
2012-9-2,83.7,59.0,37.4,29.5,20.9,12.8,48,25,11,30.21,30.09,10,1,10,0.00
2012-9-3,84.9,59.1,37.9,29.8,20.6,13.7,41,24,12,30.24,30.06,8,1,8,0.00
2012-9-4,81.1,60.7,41.7,30.6,24.2,17.6,41,27,14,30.24,30.15,6,1,6,0.00
2012-9-5,85.8,61.5,38.8,32.2,24.9,18.9,54,28,11,30.24,30.03,7,1,7,0.00
2012-9-6,74.1,59.7,46.6,34.3,29.2,22.3,50,32,21,30.27,30.06,5,0,5,0.00
2012-9-7,80.8,57.6,39.6,42.0,30.5,23.6,71,41,14,30.38,30.27,5,0,5,0.00
2012-9-8,87.4,61.6,41.5,35.1,27.0,22.3,51,30,13,30.38,30.15,5,0,5,0.00
2012-9-9,79.0,60.6,45.3,33.0,26.7,19.8,42,29,15,30.18,29.91,7,1,7,0.00
2012-9-10,72.0,58.3,43.3,31.2,25.0,19.7,46,30,16,30.12,30.00,15,1,15,0.00
2012-9-11,67.8,52.7,38.1,24.9,18.5,11.6,46,28,15,30.29,30.12,6,1,6,0.00
2012-9-12,68.7,48.0,29.3,21.6,15.6,10.0,46,30,15,30.44,30.29,6,1,6,0.00
2012-9-13,73.2,50.5,32.5,26.4,19.7,15.3,51,32,14,30.50,30.32,6,0,6,0.00
2012-9-14,74.1,51.6,36.0,31.3,21.9,15.5,43,33,16,30.35,30.18,6,0,6,0.00
2012-9-15,78.1,55.8,40.1,33.2,24.2,18.7,48,32,15,30.27,30.18,5,0,5,0.47
2012-9-16,74.8,58.0,47.7,35.5,28.5,24.1,43,33,21,30.27,30.21,6,0,6,0.00
2012-9-17,80.6,57.8,38.7,33.1,26.8,22.9,57,34,14,30.29,30.21,4,0,4,0.00
2012-9-18,82.8,59.4,39.2,31.2,24.8,19.6,50,29,14,30.27,30.12,4,1,4,0.00
2012-9-19,81.3,60.7,40.6,30.2,23.4,15.5,42,26,14,30.29,30.21,6,1,6,0.00
2012-9-20,84.2,58.1,39.4,29.6,22.0,14.8,41,26,13,30.29,30.21,6,1,6,0.00
2012-9-21,82.2,55.3,41.2,32.6,25.9,22.8,53,35,14,30.29,30.12,5,0,5,0.00
2012-9-22,74.5,56.1,41.5,32.9,27.1,23.1,51,35,18,30.21,30.12,4,0,4,0.00
2012-9-23,77.4,58.3,45.3,33.1,28.9,23.1,51,35,15,30.18,30.09,5,0,5,0.00
2012-9-24,70.7,55.8,43.2,38.3,31.7,28.5,58,42,23,30.21,30.09,4,0,4,0.00
2012-9-25,75.2,56.5,41.7,40.6,31.7,27.9,65,42,21,30.15,30.09,4,0,4,0.00
2012-9-26,74.7,55.0,40.1,39.1,31.0,28.4,69,43,21,30.21,30.12,5,0,5,0.00
2012-9-27,76.3,54.5,37.0,41.7,30.5,26.2,69,44,21,30.24,30.12,4,0,4,0.00
2012-9-28,78.1,57.9,39.4,32.5,28.1,24.3,56,35,18,30.18,30.06,8,1,8,0.00
2012-9-29,87.1,66.4,54.5,37.5,30.4,23.5,42,28,13,30.24,30.12,12,2,12,0.00
2012-9-30,81.1,61.9,46.6,34.4,28.3,21.0,52,30,14,30.38,30.24,8,1,8,0.00
2012-10-1,83.1,57.9,37.0,28.6,23.8,18.7,50,30,14,30.41,30.09,6,1,6,0.00
2012-10-2,77.4,61.1,47.3,29.9,23.0,10.0,41,25,14,30.09,29.94,14,2,14,0.00
2012-10-3,56.8,43.9,29.1,23.5,15.0,1.0,51,32,17,30.44,30.03,17,1,17,0.00
2012-10-4,54.1,37.4,21.6,25.0,14.2,9.1,62,41,23,30.41,30.29,6,0,6,0.00
2012-10-5,54.7,38.6,24.1,18.2,11.4,2.5,53,35,18,30.44,30.35,6,0,6,0.00
2012-10-6,57.7,36.7,19.0,14.9,7.8,2.3,50,32,17,30.41,30.29,6,1,6,0.00
2012-10-7,67.3,42.9,22.8,21.3,13.6,6.1,55,33,15,30.32,30.09,6,1,6,0.00
2012-10-8,69.3,47.4,28.6,22.6,16.4,11.4,53,31,17,30.12,30.00,6,0,6,0.00
2012-10-9,65.1,45.6,30.2,25.2,19.9,15.0,55,38,20,30.21,30.06,4,0,4,0.00
2012-10-10,66.4,44.6,27.0,24.6,19.1,14.7,63,39,17,30.15,30.00,5,0,5,0.00
2012-10-11,66.7,44.5,28.0,29.9,20.9,15.6,64,42,20,30.18,30.03,5,0,5,0.00
2012-10-12,80.2,51.8,26.6,28.3,19.9,14.4,66,35,12,30.03,29.88,14,1,14,0.00
2012-10-13,64.4,53.9,45.1,37.2,27.1,13.5,62,37,19,30.29,30.00,8,1,8,0.00
2012-10-14,72.0,57.3,47.3,31.6,28.2,21.8,49,34,19,30.29,30.06,11,3,11,0.00
2012-10-15,69.3,55.4,48.9,42.2,31.9,23.4,70,42,23,30.06,29.91,11,2,11,0.00
2012-10-16,59.4,51.3,36.9,45.2,27.7,9.8,75,44,19,30.15,29.65,27,4,27,0.51
2012-10-17,57.4,41.8,28.6,29.7,20.0,10.3,73,45,22,30.32,30.12,10,2,10,0.51
2012-10-18,67.3,41.0,25.3,25.4,17.9,11.1,63,43,15,30.35,30.09,6,0,6,0.51
2012-10-19,71.4,51.3,36.9,34.3,25.8,18.9,64,39,22,30.09,29.85,15,4,15,0.00
2012-10-20,57.4,46.1,28.4,38.9,21.5,9.8,74,40,20,29.97,29.76,26,3,26,0.04
2012-10-21,56.1,35.9,21.9,25.6,13.5,6.9,68,43,20,30.03,29.91,6,1,6,0.00
2012-10-22,39.0,30.7,21.6,25.5,16.2,10.2,74,55,40,29.97,29.70,4,0,4,0.00
2012-10-23,35.8,32.0,27.0,27.5,24.5,20.1,76,73,68,30.03,29.79,4,0,4,0.04
2012-10-24,48.6,35.2,27.1,35.5,19.6,13.9,77,56,28,30.15,30.03,5,0,5,0.00
2012-10-25,46.4,34.7,27.9,30.4,21.6,14.4,70,59,41,30.44,30.15,6,0,6,0.00
2012-10-26,43.5,33.7,24.4,22.8,16.1,12.0,68,51,29,30.44,30.15,15,2,15,0.00
2012-10-27,47.5,40.2,32.7,27.8,21.0,16.1,70,47,32,30.15,30.03,13,3,13,0.00
2012-10-28,60.6,51.1,42.3,32.6,28.5,25.0,61,43,27,30.06,30.00,17,5,17,0.00
2012-10-29,67.5,51.1,45.0,43.2,34.1,25.1,72,53,23,30.18,30.03,17,4,17,0.12
2012-10-30,60.3,48.3,43.2,34.7,29.0,23.4,66,49,25,30.18,30.06,6,1,6,0.00
2012-10-31,64.6,48.4,37.9,37.2,28.6,24.9,66,48,28,30.09,29.91,6,1,6,0.00
2012-11-1,64.0,47.1,40.8,33.9,28.4,18.7,70,51,18,30.09,29.91,16,2,16,0.04
2012-11-2,55.8,42.9,33.6,42.9,32.2,24.0,78,67,35,30.24,30.09,5,0,5,0.00
2012-11-3,56.1,42.8,30.6,34.1,27.5,23.3,76,57,36,30.27,30.18,8,0,8,0.00
2012-11-4,68.4,52.1,44.4,31.9,29.0,26.1,54,42,24,30.41,30.24,11,1,11,0.00
2012-11-5,67.5,53.2,40.5,35.9,29.4,22.5,62,42,24,30.38,30.29,14,3,14,0.00
2012-11-6,73.4,52.4,37.2,38.0,28.1,23.5,67,43,18,30.32,30.03,11,3,11,0.00
2012-11-7,60.6,46.3,38.3,31.6,20.6,13.8,56,36,25,30.12,29.94,12,2,12,0.00
2012-11-8,37.8,31.0,27.5,25.2,19.4,10.1,74,62,39,30.06,29.79,4,0,4,0.00
2012-11-9,33.8,28.7,21.9,26.1,17.1,4.8,75,62,45,29.91,29.79,6,0,6,0.00
2012-11-10,31.3,20.7,14.7,9.4,3.6,-0.9,59,48,33,30.12,29.91,5,0,5,0.04
2012-11-11,40.6,23.9,15.8,21.0,7.0,1.2,67,50,26,30.35,30.12,8,1,8,0.08
2012-11-12,40.3,30.1,15.4,19.5,12.2,2.6,59,48,34,30.32,30.21,13,3,13,0.08
2012-11-13,46.9,39.2,33.1,24.6,20.3,18.2,60,47,35,30.29,30.21,10,3,10,0.04
2012-11-14,54.0,40.0,30.6,29.0,23.1,16.7,72,52,31,30.32,30.18,9,2,9,0.00
2012-11-20,56.5,46.3,41.9,35.6,30.1,22.5,74,55,27,26.23,0.00,15,3,15,0.12
2012-11-21,43.7,37.4,30.7,35.2,27.6,15.5,78,68,50,26.43,26.08,15,2,15,0.55
2012-11-22,45.9,31.4,21.7,23.0,14.5,8.9,74,52,28,28.45,26.43,9,1,9,0.04
2012-11-23,39.7,28.0,20.3,20.6,14.5,9.9,71,57,40,28.45,28.12,7,1,7,0.00
2012-11-24,54.3,40.2,28.8,29.0,24.1,17.7,66,54,29,28.15,28.07,11,2,11,0.00
2012-11-25,44.2,33.4,20.5,27.3,15.3,4.8,75,50,25,28.30,28.04,14,1,14,0.00
2012-11-26,43.3,24.4,15.3,13.5,6.9,2.8,59,48,26,30.24,28.27,10,1,10,0.00
2012-11-27,34.7,22.2,12.9,16.9,8.1,3.5,68,55,40,30.24,30.12,6,0,6,0.00
2012-11-28,36.5,26.7,16.5,21.4,13.5,7.5,71,58,42,30.15,29.88,5,0,5,0.00
2012-11-29,58.5,39.8,27.9,33.9,21.9,14.6,76,52,26,29.97,29.83,11,1,11,0.00
2012-11-30,51.4,42.4,33.8,37.8,29.8,24.3,73,62,42,29.83,29.68,13,2,13,0.08
2012-12-1,47.8,40.7,35.1,34.4,28.4,24.5,77,62,45,29.83,29.71,19,3,21,0.12
2012-12-2,46.0,38.3,33.3,39.2,27.7,12.8,78,67,40,29.88,29.38,15,2,15,0.35
2012-12-3,44.2,39.0,29.5,19.5,16.1,12.4,52,39,34,30.12,29.88,16,5,16,0.35
2012-12-4,45.5,40.0,27.5,31.9,24.3,12.5,65,54,33,30.09,29.88,18,6,18,0.12
2012-12-5,50.4,43.0,31.6,36.3,21.5,7.1,71,44,26,30.09,29.83,23,5,23,0.12
2012-12-6,37.6,31.5,26.4,18.6,14.5,10.6,63,49,37,30.09,29.97,10,1,10,0.00
2012-12-7,37.6,32.2,26.2,23.9,18.5,13.0,72,57,39,30.00,29.74,15,3,15,0.00
2012-12-8,38.3,24.6,12.9,18.8,5.8,0.4,67,45,30,30.18,29.80,17,1,17,0.00
2012-12-9,31.3,19.3,3.7,10.0,0.9,-8.1,60,45,31,30.30,30.09,12,2,12,0.00
2012-12-10,39.6,31.1,21.9,17.1,13.7,9.9,71,49,33,30.12,30.00,11,2,11,0.00
2012-12-11,44.6,38.6,32.7,21.0,17.5,12.5,55,43,30,30.03,29.59,14,4,14,0.08
2012-12-12,48.7,35.6,28.9,33.8,21.6,13.3,69,57,31,29.88,29.59,10,1,10,0.00
2012-12-13,43.0,27.8,16.5,18.8,11.3,3.2,67,51,29,29.97,29.85,9,2,9,0.00
2012-12-14,36.1,24.7,15.6,14.8,10.6,3.5,64,55,40,29.85,29.74,6,0,6,0.00
2012-12-15,38.5,26.7,20.8,24.5,13.2,10.1,69,57,42,29.88,29.68,9,0,9,0.00
2012-12-16,35.6,30.5,24.8,23.8,11.0,5.7,65,44,35,29.80,29.53,15,5,15,0.00
2012-12-17,42.8,33.4,26.4,24.0,15.8,9.1,69,49,31,29.77,29.38,27,5,27,0.04
2012-12-18,38.1,23.6,12.9,13.0,4.3,-4.0,60,44,29,29.91,29.77,9,3,13,0.00
2012-12-19,34.3,23.3,14.9,6.4,0.9,-2.0,50,38,27,30.06,29.91,13,5,13,0.00
2012-12-20,39.2,33.0,24.3,9.5,5.7,-0.7,42,31,28,30.06,29.91,18,6,18,0.00
2012-12-21,46.6,38.8,32.7,17.6,11.9,7.6,47,33,28,29.94,29.85,13,2,13,0.00
2012-12-22,46.6,38.3,33.1,19.4,11.3,7.8,54,33,27,29.88,29.71,15,4,15,0.00
2012-12-23,43.0,34.3,26.4,19.3,11.7,5.2,65,40,28,29.97,29.68,14,3,14,0.00
2012-12-24,45.9,31.7,26.6,32.3,16.5,7.1,73,55,29,30.09,29.68,7,0,7,0.04
2012-12-25,31.1,25.0,22.5,19.9,12.9,6.4,71,60,44,30.12,29.85,0,0,0,0.00
2012-12-26,30.4,24.4,18.5,14.0,10.9,8.0,65,56,43,29.85,29.77,0,0,0,0.00
2012-12-27,35.1,26.6,20.3,22.2,13.6,9.7,67,58,44,30.00,29.85,4,0,4,0.00
2012-12-28,38.5,27.2,19.9,20.8,12.9,5.0,72,56,33,30.15,30.00,6,0,6,0.00
2012-12-29,26.2,19.2,12.6,8.2,4.4,-0.2,61,52,42,30.12,30.00,6,1,6,0.00
2012-12-30,30.6,21.9,14.4,13.0,5.6,-1.7,61,50,34,30.15,30.03,8,1,8,0.00
2012-12-31,32.9,21.6,10.9,15.9,4.8,-0.9,62,49,34,30.27,30.09,6,0,6,0.00
2013-1-1,31.8,18.3,9.1,13.9,2.1,-3.4,66,49,35,30.39,30.24,8,1,8,0.00